<?xml version="1.0" encoding="UTF-8" standalone="no" ?>
<gpx xmlns="http://www.topografix.com/GPX/1/1" xmlns:xsi="http://www.w3.org/2001/XMLSchema-instance" xsi:schemaLocation="http://www.topografix.com/GPX/1/1 http://www.topografix.com/GPX/1/1/gpx.xsd" version="1.1" creator="VisuGPX - https://www.visugpx.com">
  <metadata>
    <name>Maintenon-Chartres</name>
  </metadata>
  <trk>
    <name><![CDATA[Maintenon-Chartres]]></name>
    <trkseg>
      <trkpt lat="48.58925" lon="1.57839">
        <ele>101.40368774919</ele>
        <time>2022-08-01T14:01:43.000Z</time>
      </trkpt>
      <trkpt lat="48.58919" lon="1.57824">
        <ele>101.69308667392</ele>
        <time>2022-08-01T14:01:43.002Z</time>
      </trkpt>
      <trkpt lat="48.58912" lon="1.57812">
        <ele>101.96725704594</ele>
        <time>2022-08-01T14:01:43.006Z</time>
      </trkpt>
      <trkpt lat="48.58895" lon="1.57791">
        <ele>102.32721581749</ele>
        <time>2022-08-01T14:01:43.013Z</time>
      </trkpt>
      <trkpt lat="48.58876" lon="1.57781">
        <ele>102.31653029868</ele>
        <time>2022-08-01T14:01:43.023Z</time>
      </trkpt>
      <trkpt lat="48.58859" lon="1.57779">
        <ele>102.13254293087</ele>
        <time>2022-08-01T14:01:43.036Z</time>
      </trkpt>
      <trkpt lat="48.58824" lon="1.57786">
        <ele>101.9535075412</ele>
        <time>2022-08-01T14:01:43.055Z</time>
      </trkpt>
      <trkpt lat="48.58799" lon="1.57791">
        <ele>101.9867165699</ele>
        <time>2022-08-01T14:01:43.078Z</time>
      </trkpt>
      <trkpt lat="48.58795" lon="1.57779">
        <ele>101.95158342504</ele>
        <time>2022-08-01T14:01:43.102Z</time>
      </trkpt>
      <trkpt lat="48.58785" lon="1.57756">
        <ele>101.86786102652</ele>
        <time>2022-08-01T14:01:43.129Z</time>
      </trkpt>
      <trkpt lat="48.58777" lon="1.57733">
        <ele>101.740532094</ele>
        <time>2022-08-01T14:01:43.159Z</time>
      </trkpt>
      <trkpt lat="48.58756" lon="1.57685">
        <ele>101.70412139699</ele>
        <time>2022-08-01T14:01:43.195Z</time>
      </trkpt>
      <trkpt lat="48.58738" lon="1.57704">
        <ele>101.66192018398</ele>
        <time>2022-08-01T14:01:43.234Z</time>
      </trkpt>
      <trkpt lat="48.58721" lon="1.57717">
        <ele>101.62619439953</ele>
        <time>2022-08-01T14:01:43.277Z</time>
      </trkpt>
      <trkpt lat="48.58675" lon="1.57746">
        <ele>101.61658594399</ele>
        <time>2022-08-01T14:01:43.328Z</time>
      </trkpt>
      <trkpt lat="48.58665" lon="1.57754">
        <ele>101.6428336499</ele>
        <time>2022-08-01T14:01:43.380Z</time>
      </trkpt>
      <trkpt lat="48.58663" lon="1.57771">
        <ele>101.71530133193</ele>
        <time>2022-08-01T14:01:43.434Z</time>
      </trkpt>
      <trkpt lat="48.58636" lon="1.57762">
        <ele>101.84463394723</ele>
        <time>2022-08-01T14:01:43.493Z</time>
      </trkpt>
      <trkpt lat="48.58626" lon="1.57759">
        <ele>102.04139131561</ele>
        <time>2022-08-01T14:01:43.553Z</time>
      </trkpt>
      <trkpt lat="48.58619" lon="1.57756">
        <ele>102.31564292793</ele>
        <time>2022-08-01T14:01:43.614Z</time>
      </trkpt>
      <trkpt lat="48.58619" lon="1.57756">
        <ele>102.67651300084</ele>
        <time>2022-08-01T14:01:43.675Z</time>
      </trkpt>
      <trkpt lat="48.5858" lon="1.57737">
        <ele>103.07789286135</ele>
        <time>2022-08-01T14:01:43.743Z</time>
      </trkpt>
      <trkpt lat="48.58578" lon="1.57735">
        <ele>103.61758828146</ele>
        <time>2022-08-01T14:01:43.811Z</time>
      </trkpt>
      <trkpt lat="48.58551" lon="1.57697">
        <ele>104.3025804549</ele>
        <time>2022-08-01T14:01:43.885Z</time>
      </trkpt>
      <trkpt lat="48.58551" lon="1.57697">
        <ele>105.06463045183</ele>
        <time>2022-08-01T14:01:43.959Z</time>
      </trkpt>
      <trkpt lat="48.58533" lon="1.57671">
        <ele>106.11465369051</ele>
        <time>2022-08-01T14:01:44.037Z</time>
      </trkpt>
      <trkpt lat="48.58517" lon="1.57651">
        <ele>107.13892178844</ele>
        <time>2022-08-01T14:01:44.119Z</time>
      </trkpt>
      <trkpt lat="48.58497" lon="1.5763">
        <ele>108.2765169314</ele>
        <time>2022-08-01T14:01:44.204Z</time>
      </trkpt>
      <trkpt lat="48.58478" lon="1.57614">
        <ele>109.47845276122</ele>
        <time>2022-08-01T14:01:44.293Z</time>
      </trkpt>
      <trkpt lat="48.58446" lon="1.57582">
        <ele>110.69656641488</ele>
        <time>2022-08-01T14:01:44.388Z</time>
      </trkpt>
      <trkpt lat="48.58431" lon="1.57632">
        <ele>112.01863535407</ele>
        <time>2022-08-01T14:01:44.489Z</time>
      </trkpt>
      <trkpt lat="48.58414" lon="1.57694">
        <ele>113.44849201914</ele>
        <time>2022-08-01T14:01:44.597Z</time>
      </trkpt>
      <trkpt lat="48.58401" lon="1.57733">
        <ele>114.48652792782</ele>
        <time>2022-08-01T14:01:44.710Z</time>
      </trkpt>
      <trkpt lat="48.58379" lon="1.57803">
        <ele>115.22746285611</ele>
        <time>2022-08-01T14:01:44.831Z</time>
      </trkpt>
      <trkpt lat="48.58362" lon="1.57827">
        <ele>115.82362967626</ele>
        <time>2022-08-01T14:01:44.956Z</time>
      </trkpt>
      <trkpt lat="48.58316" lon="1.57854">
        <ele>116.41629863774</ele>
        <time>2022-08-01T14:01:45.088Z</time>
      </trkpt>
      <trkpt lat="48.58297" lon="1.57863">
        <ele>116.92722887082</ele>
        <time>2022-08-01T14:01:45.224Z</time>
      </trkpt>
      <trkpt lat="48.58235" lon="1.57891">
        <ele>117.57090434648</ele>
        <time>2022-08-01T14:01:45.370Z</time>
      </trkpt>
      <trkpt lat="48.58203" lon="1.57898">
        <ele>117.97826968264</ele>
        <time>2022-08-01T14:01:45.521Z</time>
      </trkpt>
      <trkpt lat="48.58203" lon="1.57898">
        <ele>117.97769242728</ele>
        <time>2022-08-01T14:01:45.672Z</time>
      </trkpt>
      <trkpt lat="48.58031" lon="1.57934">
        <ele>118.1822021543</ele>
        <time>2022-08-01T14:01:45.851Z</time>
      </trkpt>
      <trkpt lat="48.5795" lon="1.57965">
        <ele>116.99331014716</ele>
        <time>2022-08-01T14:01:46.043Z</time>
      </trkpt>
      <trkpt lat="48.57712" lon="1.57982">
        <ele>116.56558231374</ele>
        <time>2022-08-01T14:01:46.274Z</time>
      </trkpt>
      <trkpt lat="48.57712" lon="1.57982">
        <ele>115.84004575816</ele>
        <time>2022-08-01T14:01:46.505Z</time>
      </trkpt>
      <trkpt lat="48.57475" lon="1.58005">
        <ele>114.9007295947</ele>
        <time>2022-08-01T14:01:46.774Z</time>
      </trkpt>
      <trkpt lat="48.5734" lon="1.58012">
        <ele>113.82813754518</ele>
        <time>2022-08-01T14:01:47.064Z</time>
      </trkpt>
      <trkpt lat="48.57144" lon="1.58046">
        <ele>112.31373336897</ele>
        <time>2022-08-01T14:01:47.386Z</time>
      </trkpt>
      <trkpt lat="48.57117" lon="1.58053">
        <ele>110.9935651946</ele>
        <time>2022-08-01T14:01:47.712Z</time>
      </trkpt>
      <trkpt lat="48.57117" lon="1.58053">
        <ele>109.92429504615</ele>
        <time>2022-08-01T14:01:48.038Z</time>
      </trkpt>
      <trkpt lat="48.57114" lon="1.58054">
        <ele>108.8559800385</ele>
        <time>2022-08-01T14:01:48.365Z</time>
      </trkpt>
      <trkpt lat="48.57091" lon="1.58059">
        <ele>107.84433702536</ele>
        <time>2022-08-01T14:01:48.695Z</time>
      </trkpt>
      <trkpt lat="48.57029" lon="1.58084">
        <ele>107.44949744584</ele>
        <time>2022-08-01T14:01:49.036Z</time>
      </trkpt>
      <trkpt lat="48.56971" lon="1.58114">
        <ele>106.74857199261</ele>
        <time>2022-08-01T14:01:49.387Z</time>
      </trkpt>
      <trkpt lat="48.5696" lon="1.58125">
        <ele>105.64765974225</ele>
        <time>2022-08-01T14:01:49.740Z</time>
      </trkpt>
      <trkpt lat="48.56942" lon="1.58145">
        <ele>104.44824825878</ele>
        <time>2022-08-01T14:01:50.096Z</time>
      </trkpt>
      <trkpt lat="48.56908" lon="1.58196">
        <ele>103.36403422131</ele>
        <time>2022-08-01T14:01:50.460Z</time>
      </trkpt>
      <trkpt lat="48.56872" lon="1.58254">
        <ele>102.69524470952</ele>
        <time>2022-08-01T14:01:50.832Z</time>
      </trkpt>
      <trkpt lat="48.56841" lon="1.58292">
        <ele>102.21455313995</ele>
        <time>2022-08-01T14:01:51.211Z</time>
      </trkpt>
      <trkpt lat="48.56773" lon="1.58361">
        <ele>101.86756791032</ele>
        <time>2022-08-01T14:01:51.603Z</time>
      </trkpt>
      <trkpt lat="48.56734" lon="1.58382">
        <ele>101.64433357797</ele>
        <time>2022-08-01T14:01:52.002Z</time>
      </trkpt>
      <trkpt lat="48.56706" lon="1.58392">
        <ele>101.62499519327</ele>
        <time>2022-08-01T14:01:52.405Z</time>
      </trkpt>
      <trkpt lat="48.56655" lon="1.58409">
        <ele>101.62684397309</ele>
        <time>2022-08-01T14:01:52.816Z</time>
      </trkpt>
      <trkpt lat="48.56648" lon="1.58411">
        <ele>101.69858546037</ele>
        <time>2022-08-01T14:01:53.229Z</time>
      </trkpt>
      <trkpt lat="48.56588" lon="1.58424">
        <ele>102.09387687433</ele>
        <time>2022-08-01T14:01:53.651Z</time>
      </trkpt>
      <trkpt lat="48.56566" lon="1.58425">
        <ele>102.36696252893</ele>
        <time>2022-08-01T14:01:54.077Z</time>
      </trkpt>
      <trkpt lat="48.56546" lon="1.58426">
        <ele>102.74958808829</ele>
        <time>2022-08-01T14:01:54.506Z</time>
      </trkpt>
      <trkpt lat="48.56517" lon="1.58427">
        <ele>103.23077362079</ele>
        <time>2022-08-01T14:01:54.940Z</time>
      </trkpt>
      <trkpt lat="48.56421" lon="1.58425">
        <ele>103.69367105774</ele>
        <time>2022-08-01T14:01:55.389Z</time>
      </trkpt>
      <trkpt lat="48.56409" lon="1.58412">
        <ele>104.39212497123</ele>
        <time>2022-08-01T14:01:55.841Z</time>
      </trkpt>
      <trkpt lat="48.56396" lon="1.58392">
        <ele>105.19740535534</ele>
        <time>2022-08-01T14:01:56.295Z</time>
      </trkpt>
      <trkpt lat="48.56384" lon="1.58366">
        <ele>106.13471233494</ele>
        <time>2022-08-01T14:01:56.753Z</time>
      </trkpt>
      <trkpt lat="48.56379" lon="1.58358">
        <ele>107.12419323319</ele>
        <time>2022-08-01T14:01:57.212Z</time>
      </trkpt>
      <trkpt lat="48.56357" lon="1.5832">
        <ele>108.2972771816</ele>
        <time>2022-08-01T14:01:57.676Z</time>
      </trkpt>
      <trkpt lat="48.56305" lon="1.58278">
        <ele>109.4498796311</ele>
        <time>2022-08-01T14:01:58.150Z</time>
      </trkpt>
      <trkpt lat="48.56284" lon="1.58262">
        <ele>110.5661317665</ele>
        <time>2022-08-01T14:01:58.628Z</time>
      </trkpt>
      <trkpt lat="48.56243" lon="1.58234">
        <ele>111.90221461058</ele>
        <time>2022-08-01T14:01:59.113Z</time>
      </trkpt>
      <trkpt lat="48.56207" lon="1.58228">
        <ele>113.03772485072</ele>
        <time>2022-08-01T14:01:59.604Z</time>
      </trkpt>
      <trkpt lat="48.56147" lon="1.58218">
        <ele>113.92301430652</ele>
        <time>2022-08-01T14:02:00.104Z</time>
      </trkpt>
      <trkpt lat="48.56087" lon="1.58204">
        <ele>114.50782390548</ele>
        <time>2022-08-01T14:02:00.614Z</time>
      </trkpt>
      <trkpt lat="48.56087" lon="1.58204">
        <ele>115.09715409812</ele>
        <time>2022-08-01T14:02:01.124Z</time>
      </trkpt>
      <trkpt lat="48.56055" lon="1.58205">
        <ele>115.75994061633</ele>
        <time>2022-08-01T14:02:01.639Z</time>
      </trkpt>
      <trkpt lat="48.55927" lon="1.58212">
        <ele>115.77728875446</ele>
        <time>2022-08-01T14:02:02.175Z</time>
      </trkpt>
      <trkpt lat="48.55874" lon="1.58212">
        <ele>116.11031374698</ele>
        <time>2022-08-01T14:02:02.719Z</time>
      </trkpt>
      <trkpt lat="48.5581" lon="1.58195">
        <ele>116.14440987261</ele>
        <time>2022-08-01T14:02:03.274Z</time>
      </trkpt>
      <trkpt lat="48.55772" lon="1.58183">
        <ele>115.77886517238</ele>
        <time>2022-08-01T14:02:03.835Z</time>
      </trkpt>
      <trkpt lat="48.55725" lon="1.58162">
        <ele>115.84763316655</ele>
        <time>2022-08-01T14:02:04.404Z</time>
      </trkpt>
      <trkpt lat="48.55591" lon="1.58099">
        <ele>115.57780901622</ele>
        <time>2022-08-01T14:02:04.995Z</time>
      </trkpt>
      <trkpt lat="48.55563" lon="1.58088">
        <ele>115.38287610767</ele>
        <time>2022-08-01T14:02:05.591Z</time>
      </trkpt>
      <trkpt lat="48.55516" lon="1.58075">
        <ele>114.73939191124</ele>
        <time>2022-08-01T14:02:06.194Z</time>
      </trkpt>
      <trkpt lat="48.55462" lon="1.5807">
        <ele>114.25165485688</ele>
        <time>2022-08-01T14:02:06.806Z</time>
      </trkpt>
      <trkpt lat="48.55379" lon="1.58077">
        <ele>113.60866382516</ele>
        <time>2022-08-01T14:02:07.431Z</time>
      </trkpt>
      <trkpt lat="48.55306" lon="1.58073">
        <ele>112.65046489888</ele>
        <time>2022-08-01T14:02:08.068Z</time>
      </trkpt>
      <trkpt lat="48.55269" lon="1.58074">
        <ele>111.92459867275</ele>
        <time>2022-08-01T14:02:08.711Z</time>
      </trkpt>
      <trkpt lat="48.5523" lon="1.58081">
        <ele>111.57028060881</ele>
        <time>2022-08-01T14:02:09.360Z</time>
      </trkpt>
      <trkpt lat="48.5517" lon="1.58097">
        <ele>110.80284955688</ele>
        <time>2022-08-01T14:02:10.019Z</time>
      </trkpt>
      <trkpt lat="48.55132" lon="1.58125">
        <ele>109.75493668567</ele>
        <time>2022-08-01T14:02:10.685Z</time>
      </trkpt>
      <trkpt lat="48.55103" lon="1.58159">
        <ele>108.96891769029</ele>
        <time>2022-08-01T14:02:11.357Z</time>
      </trkpt>
      <trkpt lat="48.55085" lon="1.58188">
        <ele>108.20563974932</ele>
        <time>2022-08-01T14:02:12.033Z</time>
      </trkpt>
      <trkpt lat="48.55047" lon="1.58295">
        <ele>107.70105401505</ele>
        <time>2022-08-01T14:02:12.722Z</time>
      </trkpt>
      <trkpt lat="48.55036" lon="1.58318">
        <ele>107.20966236636</ele>
        <time>2022-08-01T14:02:13.414Z</time>
      </trkpt>
      <trkpt lat="48.55023" lon="1.58337">
        <ele>106.81312733978</ele>
        <time>2022-08-01T14:02:14.109Z</time>
      </trkpt>
      <trkpt lat="48.55014" lon="1.58345">
        <ele>106.59153865938</ele>
        <time>2022-08-01T14:02:14.805Z</time>
      </trkpt>
      <trkpt lat="48.55014" lon="1.58345">
        <ele>106.46756240804</ele>
        <time>2022-08-01T14:02:15.501Z</time>
      </trkpt>
      <trkpt lat="48.54991" lon="1.5836">
        <ele>106.49952498243</ele>
        <time>2022-08-01T14:02:16.201Z</time>
      </trkpt>
      <trkpt lat="48.54932" lon="1.58388">
        <ele>106.90454185846</ele>
        <time>2022-08-01T14:02:16.911Z</time>
      </trkpt>
      <trkpt lat="48.54912" lon="1.58395">
        <ele>107.09443552298</ele>
        <time>2022-08-01T14:02:17.625Z</time>
      </trkpt>
      <trkpt lat="48.54867" lon="1.58408">
        <ele>107.05516946347</ele>
        <time>2022-08-01T14:02:18.346Z</time>
      </trkpt>
      <trkpt lat="48.54849" lon="1.58406">
        <ele>107.11166891702</ele>
        <time>2022-08-01T14:02:19.070Z</time>
      </trkpt>
      <trkpt lat="48.54793" lon="1.58367">
        <ele>107.22356960358</ele>
        <time>2022-08-01T14:02:19.804Z</time>
      </trkpt>
      <trkpt lat="48.54779" lon="1.58363">
        <ele>107.36980547232</ele>
        <time>2022-08-01T14:02:20.540Z</time>
      </trkpt>
      <trkpt lat="48.54775" lon="1.58361">
        <ele>107.4674097072</ele>
        <time>2022-08-01T14:02:21.277Z</time>
      </trkpt>
      <trkpt lat="48.54755" lon="1.58355">
        <ele>107.55191888735</ele>
        <time>2022-08-01T14:02:22.017Z</time>
      </trkpt>
      <trkpt lat="48.54734" lon="1.58358">
        <ele>107.53908251648</ele>
        <time>2022-08-01T14:02:22.760Z</time>
      </trkpt>
      <trkpt lat="48.54735" lon="1.58377">
        <ele>107.54471227048</ele>
        <time>2022-08-01T14:02:23.505Z</time>
      </trkpt>
      <trkpt lat="48.54739" lon="1.5839">
        <ele>107.55351812446</ele>
        <time>2022-08-01T14:02:24.252Z</time>
      </trkpt>
      <trkpt lat="48.54741" lon="1.58403">
        <ele>107.50196213596</ele>
        <time>2022-08-01T14:02:25.000Z</time>
      </trkpt>
      <trkpt lat="48.54736" lon="1.58451">
        <ele>107.36208381757</ele>
        <time>2022-08-01T14:02:25.753Z</time>
      </trkpt>
      <trkpt lat="48.54735" lon="1.58455">
        <ele>107.31357725461</ele>
        <time>2022-08-01T14:02:26.507Z</time>
      </trkpt>
      <trkpt lat="48.54708" lon="1.58551">
        <ele>107.20263178022</ele>
        <time>2022-08-01T14:02:27.272Z</time>
      </trkpt>
      <trkpt lat="48.54664" lon="1.58563">
        <ele>107.12093238266</ele>
        <time>2022-08-01T14:02:28.044Z</time>
      </trkpt>
      <trkpt lat="48.54627" lon="1.5857">
        <ele>107.09930954174</ele>
        <time>2022-08-01T14:02:28.822Z</time>
      </trkpt>
      <trkpt lat="48.54563" lon="1.586">
        <ele>107.10503641178</ele>
        <time>2022-08-01T14:02:29.611Z</time>
      </trkpt>
      <trkpt lat="48.54523" lon="1.58611">
        <ele>107.03573415431</ele>
        <time>2022-08-01T14:02:30.406Z</time>
      </trkpt>
      <trkpt lat="48.545" lon="1.58603">
        <ele>106.99028034571</ele>
        <time>2022-08-01T14:02:31.205Z</time>
      </trkpt>
      <trkpt lat="48.54467" lon="1.58593">
        <ele>107.11888623573</ele>
        <time>2022-08-01T14:02:32.010Z</time>
      </trkpt>
      <trkpt lat="48.54325" lon="1.58544">
        <ele>107.08191520873</ele>
        <time>2022-08-01T14:02:32.838Z</time>
      </trkpt>
      <trkpt lat="48.54099" lon="1.58462">
        <ele>107.1648586128</ele>
        <time>2022-08-01T14:02:33.703Z</time>
      </trkpt>
      <trkpt lat="48.54075" lon="1.5846">
        <ele>107.20175147037</ele>
        <time>2022-08-01T14:02:34.572Z</time>
      </trkpt>
      <trkpt lat="48.54029" lon="1.58448">
        <ele>107.18187411428</ele>
        <time>2022-08-01T14:02:35.448Z</time>
      </trkpt>
      <trkpt lat="48.54011" lon="1.58438">
        <ele>107.1254968819</ele>
        <time>2022-08-01T14:02:36.328Z</time>
      </trkpt>
      <trkpt lat="48.5397" lon="1.58411">
        <ele>107.03887365801</ele>
        <time>2022-08-01T14:02:37.215Z</time>
      </trkpt>
      <trkpt lat="48.53857" lon="1.58334">
        <ele>107.12798239953</ele>
        <time>2022-08-01T14:02:38.121Z</time>
      </trkpt>
      <trkpt lat="48.53857" lon="1.58334">
        <ele>107.04014526743</ele>
        <time>2022-08-01T14:02:39.027Z</time>
      </trkpt>
      <trkpt lat="48.53806" lon="1.58301">
        <ele>106.89733362123</ele>
        <time>2022-08-01T14:02:39.942Z</time>
      </trkpt>
      <trkpt lat="48.53699" lon="1.58205">
        <ele>106.56036235188</ele>
        <time>2022-08-01T14:02:40.877Z</time>
      </trkpt>
      <trkpt lat="48.53699" lon="1.58205">
        <ele>106.4447158074</ele>
        <time>2022-08-01T14:02:41.812Z</time>
      </trkpt>
      <trkpt lat="48.53678" lon="1.58187">
        <ele>106.36063034269</ele>
        <time>2022-08-01T14:02:42.751Z</time>
      </trkpt>
      <trkpt lat="48.53644" lon="1.58163">
        <ele>106.24819942232</ele>
        <time>2022-08-01T14:02:43.696Z</time>
      </trkpt>
      <trkpt lat="48.53608" lon="1.58141">
        <ele>106.169162309</ele>
        <time>2022-08-01T14:02:44.647Z</time>
      </trkpt>
      <trkpt lat="48.53593" lon="1.58136">
        <ele>106.08456861456</ele>
        <time>2022-08-01T14:02:45.601Z</time>
      </trkpt>
      <trkpt lat="48.53577" lon="1.58141">
        <ele>106.04989297245</ele>
        <time>2022-08-01T14:02:46.557Z</time>
      </trkpt>
      <trkpt lat="48.53571" lon="1.58142">
        <ele>106.07787782412</ele>
        <time>2022-08-01T14:02:47.515Z</time>
      </trkpt>
      <trkpt lat="48.53546" lon="1.58137">
        <ele>106.12935930506</ele>
        <time>2022-08-01T14:02:48.477Z</time>
      </trkpt>
      <trkpt lat="48.53531" lon="1.58138">
        <ele>106.23255477438</ele>
        <time>2022-08-01T14:02:49.441Z</time>
      </trkpt>
      <trkpt lat="48.53531" lon="1.58138">
        <ele>106.36410793687</ele>
        <time>2022-08-01T14:02:50.405Z</time>
      </trkpt>
      <trkpt lat="48.53521" lon="1.58139">
        <ele>106.53103307443</ele>
        <time>2022-08-01T14:02:51.371Z</time>
      </trkpt>
      <trkpt lat="48.53489" lon="1.58132">
        <ele>106.77157101237</ele>
        <time>2022-08-01T14:02:52.342Z</time>
      </trkpt>
      <trkpt lat="48.53469" lon="1.58124">
        <ele>107.06728172154</ele>
        <time>2022-08-01T14:02:53.316Z</time>
      </trkpt>
      <trkpt lat="48.53438" lon="1.58118">
        <ele>107.42135041397</ele>
        <time>2022-08-01T14:02:54.295Z</time>
      </trkpt>
      <trkpt lat="48.53408" lon="1.58121">
        <ele>107.7095417332</ele>
        <time>2022-08-01T14:02:55.279Z</time>
      </trkpt>
      <trkpt lat="48.53383" lon="1.58111">
        <ele>107.85684338558</ele>
        <time>2022-08-01T14:02:56.267Z</time>
      </trkpt>
      <trkpt lat="48.53334" lon="1.5808">
        <ele>107.837648715</ele>
        <time>2022-08-01T14:02:57.264Z</time>
      </trkpt>
      <trkpt lat="48.53334" lon="1.5808">
        <ele>107.85220597579</ele>
        <time>2022-08-01T14:02:58.261Z</time>
      </trkpt>
      <trkpt lat="48.53295" lon="1.58059">
        <ele>107.66562988765</ele>
        <time>2022-08-01T14:02:59.264Z</time>
      </trkpt>
      <trkpt lat="48.53258" lon="1.58051">
        <ele>107.50615516491</ele>
        <time>2022-08-01T14:03:00.273Z</time>
      </trkpt>
      <trkpt lat="48.53251" lon="1.58051">
        <ele>107.45805361696</ele>
        <time>2022-08-01T14:03:01.283Z</time>
      </trkpt>
      <trkpt lat="48.53237" lon="1.58052">
        <ele>107.42445144758</ele>
        <time>2022-08-01T14:03:02.295Z</time>
      </trkpt>
      <trkpt lat="48.53216" lon="1.58053">
        <ele>107.42191574134</ele>
        <time>2022-08-01T14:03:03.311Z</time>
      </trkpt>
      <trkpt lat="48.53176" lon="1.58049">
        <ele>107.42475363849</ele>
        <time>2022-08-01T14:03:04.333Z</time>
      </trkpt>
      <trkpt lat="48.5313" lon="1.58037">
        <ele>107.61021415108</ele>
        <time>2022-08-01T14:03:05.363Z</time>
      </trkpt>
      <trkpt lat="48.53098" lon="1.58021">
        <ele>107.85639705982</ele>
        <time>2022-08-01T14:03:06.398Z</time>
      </trkpt>
      <trkpt lat="48.53086" lon="1.58015">
        <ele>108.15113993043</ele>
        <time>2022-08-01T14:03:07.435Z</time>
      </trkpt>
      <trkpt lat="48.53028" lon="1.57975">
        <ele>108.43264457858</ele>
        <time>2022-08-01T14:03:08.482Z</time>
      </trkpt>
      <trkpt lat="48.52944" lon="1.57893">
        <ele>108.73574622066</ele>
        <time>2022-08-01T14:03:09.545Z</time>
      </trkpt>
      <trkpt lat="48.52903" lon="1.57849">
        <ele>109.37773504617</ele>
        <time>2022-08-01T14:03:10.617Z</time>
      </trkpt>
      <trkpt lat="48.52891" lon="1.57839">
        <ele>109.92873657433</ele>
        <time>2022-08-01T14:03:11.691Z</time>
      </trkpt>
      <trkpt lat="48.52865" lon="1.57821">
        <ele>110.50341663238</ele>
        <time>2022-08-01T14:03:12.769Z</time>
      </trkpt>
      <trkpt lat="48.52827" lon="1.57807">
        <ele>111.19512596324</ele>
        <time>2022-08-01T14:03:13.853Z</time>
      </trkpt>
      <trkpt lat="48.5282" lon="1.57802">
        <ele>111.85035107867</ele>
        <time>2022-08-01T14:03:14.939Z</time>
      </trkpt>
      <trkpt lat="48.52769" lon="1.57742">
        <ele>112.47015878327</ele>
        <time>2022-08-01T14:03:16.035Z</time>
      </trkpt>
      <trkpt lat="48.5265" lon="1.57631">
        <ele>113.18167476403</ele>
        <time>2022-08-01T14:03:17.153Z</time>
      </trkpt>
      <trkpt lat="48.52474" lon="1.57495">
        <ele>113.79131360023</ele>
        <time>2022-08-01T14:03:18.303Z</time>
      </trkpt>
      <trkpt lat="48.52458" lon="1.57496">
        <ele>114.58666043202</ele>
        <time>2022-08-01T14:03:19.456Z</time>
      </trkpt>
      <trkpt lat="48.5242" lon="1.57504">
        <ele>115.72644122355</ele>
        <time>2022-08-01T14:03:20.615Z</time>
      </trkpt>
      <trkpt lat="48.52382" lon="1.57486">
        <ele>116.5941984398</ele>
        <time>2022-08-01T14:03:21.780Z</time>
      </trkpt>
      <trkpt lat="48.5236" lon="1.5747">
        <ele>117.2376681026</ele>
        <time>2022-08-01T14:03:22.949Z</time>
      </trkpt>
      <trkpt lat="48.52294" lon="1.57388">
        <ele>117.66053344642</ele>
        <time>2022-08-01T14:03:24.132Z</time>
      </trkpt>
      <trkpt lat="48.52236" lon="1.57303">
        <ele>118.01415579013</ele>
        <time>2022-08-01T14:03:25.328Z</time>
      </trkpt>
      <trkpt lat="48.52182" lon="1.57206">
        <ele>117.96407816577</ele>
        <time>2022-08-01T14:03:26.537Z</time>
      </trkpt>
      <trkpt lat="48.52146" lon="1.57138">
        <ele>118.16194804621</ele>
        <time>2022-08-01T14:03:27.756Z</time>
      </trkpt>
      <trkpt lat="48.52109" lon="1.57084">
        <ele>118.33664974585</ele>
        <time>2022-08-01T14:03:28.983Z</time>
      </trkpt>
      <trkpt lat="48.52003" lon="1.56955">
        <ele>118.20540963976</ele>
        <time>2022-08-01T14:03:30.232Z</time>
      </trkpt>
      <trkpt lat="48.51981" lon="1.56932">
        <ele>118.11278807136</ele>
        <time>2022-08-01T14:03:31.485Z</time>
      </trkpt>
      <trkpt lat="48.51965" lon="1.56918">
        <ele>117.97215793351</ele>
        <time>2022-08-01T14:03:32.741Z</time>
      </trkpt>
      <trkpt lat="48.51929" lon="1.56882">
        <ele>117.86701624162</ele>
        <time>2022-08-01T14:03:34.004Z</time>
      </trkpt>
      <trkpt lat="48.51876" lon="1.5682">
        <ele>117.72440117717</ele>
        <time>2022-08-01T14:03:35.278Z</time>
      </trkpt>
      <trkpt lat="48.51775" lon="1.56675">
        <ele>117.49149635079</ele>
        <time>2022-08-01T14:03:36.574Z</time>
      </trkpt>
      <trkpt lat="48.51735" lon="1.56609">
        <ele>117.00048870654</ele>
        <time>2022-08-01T14:03:37.879Z</time>
      </trkpt>
      <trkpt lat="48.51692" lon="1.56529">
        <ele>116.57903945409</ele>
        <time>2022-08-01T14:03:39.195Z</time>
      </trkpt>
      <trkpt lat="48.51648" lon="1.56458">
        <ele>116.32252295207</ele>
        <time>2022-08-01T14:03:40.522Z</time>
      </trkpt>
      <trkpt lat="48.51616" lon="1.56414">
        <ele>116.23144050033</ele>
        <time>2022-08-01T14:03:41.856Z</time>
      </trkpt>
      <trkpt lat="48.51596" lon="1.56393">
        <ele>116.22098188308</ele>
        <time>2022-08-01T14:03:43.194Z</time>
      </trkpt>
      <trkpt lat="48.51576" lon="1.56378">
        <ele>116.27118625523</ele>
        <time>2022-08-01T14:03:44.535Z</time>
      </trkpt>
      <trkpt lat="48.51572" lon="1.56376">
        <ele>116.3149376874</ele>
        <time>2022-08-01T14:03:45.877Z</time>
      </trkpt>
      <trkpt lat="48.51544" lon="1.56363">
        <ele>116.46359017122</ele>
        <time>2022-08-01T14:03:47.224Z</time>
      </trkpt>
      <trkpt lat="48.51526" lon="1.5635">
        <ele>116.56176146492</ele>
        <time>2022-08-01T14:03:48.574Z</time>
      </trkpt>
      <trkpt lat="48.51428" lon="1.56233">
        <ele>116.8056742185</ele>
        <time>2022-08-01T14:03:49.944Z</time>
      </trkpt>
      <trkpt lat="48.51328" lon="1.56112">
        <ele>117.03881985809</ele>
        <time>2022-08-01T14:03:51.334Z</time>
      </trkpt>
      <trkpt lat="48.51271" lon="1.56039">
        <ele>117.19215039173</ele>
        <time>2022-08-01T14:03:52.736Z</time>
      </trkpt>
      <trkpt lat="48.5121" lon="1.55974">
        <ele>116.93176923188</ele>
        <time>2022-08-01T14:03:54.150Z</time>
      </trkpt>
      <trkpt lat="48.51075" lon="1.55811">
        <ele>116.90855340892</ele>
        <time>2022-08-01T14:03:55.592Z</time>
      </trkpt>
      <trkpt lat="48.51049" lon="1.55777">
        <ele>116.80724607304</ele>
        <time>2022-08-01T14:03:57.040Z</time>
      </trkpt>
      <trkpt lat="48.5103" lon="1.55745">
        <ele>116.59865295039</ele>
        <time>2022-08-01T14:03:58.492Z</time>
      </trkpt>
      <trkpt lat="48.51019" lon="1.55729">
        <ele>116.4202866671</ele>
        <time>2022-08-01T14:03:59.947Z</time>
      </trkpt>
      <trkpt lat="48.50955" lon="1.55655">
        <ele>115.99411949064</ele>
        <time>2022-08-01T14:04:01.414Z</time>
      </trkpt>
      <trkpt lat="48.50955" lon="1.55655">
        <ele>115.75306584872</ele>
        <time>2022-08-01T14:04:02.881Z</time>
      </trkpt>
      <trkpt lat="48.5095" lon="1.55642">
        <ele>115.45903179365</ele>
        <time>2022-08-01T14:04:04.350Z</time>
      </trkpt>
      <trkpt lat="48.50947" lon="1.55624">
        <ele>115.10336276848</ele>
        <time>2022-08-01T14:04:05.821Z</time>
      </trkpt>
      <trkpt lat="48.50947" lon="1.55615">
        <ele>114.84425497651</ele>
        <time>2022-08-01T14:04:07.293Z</time>
      </trkpt>
      <trkpt lat="48.5095" lon="1.55599">
        <ele>114.49220780619</ele>
        <time>2022-08-01T14:04:08.767Z</time>
      </trkpt>
      <trkpt lat="48.50896" lon="1.55505">
        <ele>114.57780353401</ele>
        <time>2022-08-01T14:04:10.254Z</time>
      </trkpt>
      <trkpt lat="48.50807" lon="1.55337">
        <ele>114.99879651376</ele>
        <time>2022-08-01T14:04:11.764Z</time>
      </trkpt>
      <trkpt lat="48.50759" lon="1.55239">
        <ele>115.20682220127</ele>
        <time>2022-08-01T14:04:13.287Z</time>
      </trkpt>
      <trkpt lat="48.5071" lon="1.55111">
        <ele>115.11281837221</ele>
        <time>2022-08-01T14:04:14.826Z</time>
      </trkpt>
      <trkpt lat="48.50699" lon="1.55098">
        <ele>115.35774014292</ele>
        <time>2022-08-01T14:04:16.367Z</time>
      </trkpt>
      <trkpt lat="48.50697" lon="1.55097">
        <ele>115.64007124518</ele>
        <time>2022-08-01T14:04:17.908Z</time>
      </trkpt>
      <trkpt lat="48.50678" lon="1.55078">
        <ele>116.03879037369</ele>
        <time>2022-08-01T14:04:19.453Z</time>
      </trkpt>
      <trkpt lat="48.50563" lon="1.54834">
        <ele>116.48155150577</ele>
        <time>2022-08-01T14:04:21.030Z</time>
      </trkpt>
      <trkpt lat="48.50541" lon="1.54797">
        <ele>116.84788593662</ele>
        <time>2022-08-01T14:04:22.612Z</time>
      </trkpt>
      <trkpt lat="48.50533" lon="1.54784">
        <ele>117.27385280262</ele>
        <time>2022-08-01T14:04:24.196Z</time>
      </trkpt>
      <trkpt lat="48.50533" lon="1.54784">
        <ele>117.72206366205</ele>
        <time>2022-08-01T14:04:25.780Z</time>
      </trkpt>
      <trkpt lat="48.50498" lon="1.54737">
        <ele>118.38179961982</ele>
        <time>2022-08-01T14:04:27.371Z</time>
      </trkpt>
      <trkpt lat="48.50447" lon="1.54662">
        <ele>118.93212739222</ele>
        <time>2022-08-01T14:04:28.974Z</time>
      </trkpt>
      <trkpt lat="48.50404" lon="1.54613">
        <ele>119.39047593157</ele>
        <time>2022-08-01T14:04:30.585Z</time>
      </trkpt>
      <trkpt lat="48.50386" lon="1.54597">
        <ele>119.87063333981</ele>
        <time>2022-08-01T14:04:32.200Z</time>
      </trkpt>
      <trkpt lat="48.5031" lon="1.54518">
        <ele>120.33456323455</ele>
        <time>2022-08-01T14:04:33.829Z</time>
      </trkpt>
      <trkpt lat="48.50272" lon="1.54487">
        <ele>120.78475480963</ele>
        <time>2022-08-01T14:04:35.465Z</time>
      </trkpt>
      <trkpt lat="48.50237" lon="1.54453">
        <ele>120.98658297314</ele>
        <time>2022-08-01T14:04:37.108Z</time>
      </trkpt>
      <trkpt lat="48.5019" lon="1.544">
        <ele>121.35600688624</ele>
        <time>2022-08-01T14:04:38.760Z</time>
      </trkpt>
      <trkpt lat="48.5017" lon="1.54372">
        <ele>121.62501140556</ele>
        <time>2022-08-01T14:04:40.417Z</time>
      </trkpt>
      <trkpt lat="48.5015" lon="1.54351">
        <ele>121.91979141878</ele>
        <time>2022-08-01T14:04:42.078Z</time>
      </trkpt>
      <trkpt lat="48.50115" lon="1.54323">
        <ele>122.228369067</ele>
        <time>2022-08-01T14:04:43.745Z</time>
      </trkpt>
      <trkpt lat="48.50093" lon="1.54301">
        <ele>122.3300253443</ele>
        <time>2022-08-01T14:04:45.416Z</time>
      </trkpt>
      <trkpt lat="48.50056" lon="1.54252">
        <ele>122.50679381607</ele>
        <time>2022-08-01T14:04:47.095Z</time>
      </trkpt>
      <trkpt lat="48.50014" lon="1.54227">
        <ele>122.77255918398</ele>
        <time>2022-08-01T14:04:48.781Z</time>
      </trkpt>
      <trkpt lat="48.49952" lon="1.54195">
        <ele>123.17751765526</ele>
        <time>2022-08-01T14:04:50.478Z</time>
      </trkpt>
      <trkpt lat="48.49863" lon="1.54168">
        <ele>123.90397111679</ele>
        <time>2022-08-01T14:04:52.189Z</time>
      </trkpt>
      <trkpt lat="48.49815" lon="1.54147">
        <ele>123.89330760203</ele>
        <time>2022-08-01T14:04:53.908Z</time>
      </trkpt>
      <trkpt lat="48.49772" lon="1.54125">
        <ele>123.8709221576</ele>
        <time>2022-08-01T14:04:55.635Z</time>
      </trkpt>
      <trkpt lat="48.49682" lon="1.54067">
        <ele>123.6912904491</ele>
        <time>2022-08-01T14:04:57.377Z</time>
      </trkpt>
      <trkpt lat="48.49641" lon="1.54046">
        <ele>123.50510705665</ele>
        <time>2022-08-01T14:04:59.126Z</time>
      </trkpt>
      <trkpt lat="48.49576" lon="1.5402">
        <ele>122.94360938918</ele>
        <time>2022-08-01T14:05:00.886Z</time>
      </trkpt>
      <trkpt lat="48.49447" lon="1.53982">
        <ele>122.97633957317</ele>
        <time>2022-08-01T14:05:02.667Z</time>
      </trkpt>
      <trkpt lat="48.49378" lon="1.53958">
        <ele>122.49858068283</ele>
        <time>2022-08-01T14:05:04.459Z</time>
      </trkpt>
      <trkpt lat="48.4927" lon="1.53914">
        <ele>121.81310031445</ele>
        <time>2022-08-01T14:05:06.269Z</time>
      </trkpt>
      <trkpt lat="48.49229" lon="1.53905">
        <ele>121.38599565933</ele>
        <time>2022-08-01T14:05:08.086Z</time>
      </trkpt>
      <trkpt lat="48.49153" lon="1.53865">
        <ele>121.08677163325</ele>
        <time>2022-08-01T14:05:09.916Z</time>
      </trkpt>
      <trkpt lat="48.49116" lon="1.53846">
        <ele>120.53186483702</ele>
        <time>2022-08-01T14:05:11.752Z</time>
      </trkpt>
      <trkpt lat="48.49071" lon="1.53816">
        <ele>119.84266288734</ele>
        <time>2022-08-01T14:05:13.596Z</time>
      </trkpt>
      <trkpt lat="48.4904" lon="1.53784">
        <ele>119.36493953949</ele>
        <time>2022-08-01T14:05:15.446Z</time>
      </trkpt>
      <trkpt lat="48.49003" lon="1.53733">
        <ele>118.94155898111</ele>
        <time>2022-08-01T14:05:17.304Z</time>
      </trkpt>
      <trkpt lat="48.49003" lon="1.53733">
        <ele>118.55854689205</ele>
        <time>2022-08-01T14:05:19.162Z</time>
      </trkpt>
      <trkpt lat="48.48994" lon="1.53729">
        <ele>118.19921246185</ele>
        <time>2022-08-01T14:05:21.022Z</time>
      </trkpt>
      <trkpt lat="48.48994" lon="1.53729">
        <ele>117.88942124021</ele>
        <time>2022-08-01T14:05:22.882Z</time>
      </trkpt>
      <trkpt lat="48.4888" lon="1.53674">
        <ele>117.74201420022</ele>
        <time>2022-08-01T14:05:24.761Z</time>
      </trkpt>
      <trkpt lat="48.48861" lon="1.53663">
        <ele>117.49908171125</ele>
        <time>2022-08-01T14:05:26.643Z</time>
      </trkpt>
      <trkpt lat="48.4885" lon="1.53644">
        <ele>117.25874620937</ele>
        <time>2022-08-01T14:05:28.528Z</time>
      </trkpt>
      <trkpt lat="48.48838" lon="1.53614">
        <ele>116.93887235394</ele>
        <time>2022-08-01T14:05:30.416Z</time>
      </trkpt>
      <trkpt lat="48.48801" lon="1.53507">
        <ele>116.62800829065</ele>
        <time>2022-08-01T14:05:32.317Z</time>
      </trkpt>
      <trkpt lat="48.48801" lon="1.53507">
        <ele>116.49420606924</ele>
        <time>2022-08-01T14:05:34.218Z</time>
      </trkpt>
      <trkpt lat="48.48771" lon="1.53429">
        <ele>116.54171646772</ele>
        <time>2022-08-01T14:05:36.129Z</time>
      </trkpt>
      <trkpt lat="48.48762" lon="1.53394">
        <ele>116.60069724485</ele>
        <time>2022-08-01T14:05:38.044Z</time>
      </trkpt>
      <trkpt lat="48.48761" lon="1.53344">
        <ele>116.57487264157</ele>
        <time>2022-08-01T14:05:39.964Z</time>
      </trkpt>
      <trkpt lat="48.48758" lon="1.53331">
        <ele>116.52009323759</ele>
        <time>2022-08-01T14:05:41.886Z</time>
      </trkpt>
      <trkpt lat="48.48753" lon="1.53309">
        <ele>116.43698883299</ele>
        <time>2022-08-01T14:05:43.810Z</time>
      </trkpt>
      <trkpt lat="48.48708" lon="1.53216">
        <ele>115.99428536247</ele>
        <time>2022-08-01T14:05:45.746Z</time>
      </trkpt>
      <trkpt lat="48.48703" lon="1.53199">
        <ele>115.90922398837</ele>
        <time>2022-08-01T14:05:47.684Z</time>
      </trkpt>
      <trkpt lat="48.48701" lon="1.53172">
        <ele>115.87672019807</ele>
        <time>2022-08-01T14:05:49.625Z</time>
      </trkpt>
      <trkpt lat="48.48697" lon="1.53107">
        <ele>115.9576233541</ele>
        <time>2022-08-01T14:05:51.573Z</time>
      </trkpt>
      <trkpt lat="48.48694" lon="1.53064">
        <ele>116.00134287096</ele>
        <time>2022-08-01T14:05:53.526Z</time>
      </trkpt>
      <trkpt lat="48.48693" lon="1.53023">
        <ele>116.08019022622</ele>
        <time>2022-08-01T14:05:55.483Z</time>
      </trkpt>
      <trkpt lat="48.48696" lon="1.53011">
        <ele>116.1997970874</ele>
        <time>2022-08-01T14:05:57.441Z</time>
      </trkpt>
      <trkpt lat="48.48679" lon="1.52958">
        <ele>116.31506736582</ele>
        <time>2022-08-01T14:05:59.406Z</time>
      </trkpt>
      <trkpt lat="48.48662" lon="1.52918">
        <ele>116.4786198186</ele>
        <time>2022-08-01T14:06:01.376Z</time>
      </trkpt>
      <trkpt lat="48.48644" lon="1.52884">
        <ele>116.75110542128</ele>
        <time>2022-08-01T14:06:03.350Z</time>
      </trkpt>
      <trkpt lat="48.48627" lon="1.52856">
        <ele>117.06905085674</ele>
        <time>2022-08-01T14:06:05.328Z</time>
      </trkpt>
      <trkpt lat="48.48609" lon="1.52825">
        <ele>117.3911142412</ele>
        <time>2022-08-01T14:06:07.311Z</time>
      </trkpt>
      <trkpt lat="48.48592" lon="1.52788">
        <ele>117.80534129333</ele>
        <time>2022-08-01T14:06:09.299Z</time>
      </trkpt>
      <trkpt lat="48.48572" lon="1.52757">
        <ele>118.23435606431</ele>
        <time>2022-08-01T14:06:11.291Z</time>
      </trkpt>
      <trkpt lat="48.48559" lon="1.52728">
        <ele>118.58368994906</ele>
        <time>2022-08-01T14:06:13.287Z</time>
      </trkpt>
      <trkpt lat="48.48553" lon="1.52714">
        <ele>118.88903533194</ele>
        <time>2022-08-01T14:06:15.285Z</time>
      </trkpt>
      <trkpt lat="48.48551" lon="1.52702">
        <ele>119.15604510088</ele>
        <time>2022-08-01T14:06:17.284Z</time>
      </trkpt>
      <trkpt lat="48.48552" lon="1.52691">
        <ele>119.36909996946</ele>
        <time>2022-08-01T14:06:19.284Z</time>
      </trkpt>
      <trkpt lat="48.48546" lon="1.52684">
        <ele>119.51733228335</ele>
        <time>2022-08-01T14:06:21.285Z</time>
      </trkpt>
      <trkpt lat="48.48538" lon="1.52672">
        <ele>119.62224234487</ele>
        <time>2022-08-01T14:06:23.288Z</time>
      </trkpt>
      <trkpt lat="48.4851" lon="1.52621">
        <ele>119.63713428061</ele>
        <time>2022-08-01T14:06:25.298Z</time>
      </trkpt>
      <trkpt lat="48.48495" lon="1.52592">
        <ele>119.62524495899</ele>
        <time>2022-08-01T14:06:27.312Z</time>
      </trkpt>
      <trkpt lat="48.48495" lon="1.52592">
        <ele>119.63254846518</ele>
        <time>2022-08-01T14:06:29.326Z</time>
      </trkpt>
      <trkpt lat="48.48492" lon="1.52586">
        <ele>119.61515392101</ele>
        <time>2022-08-01T14:06:31.341Z</time>
      </trkpt>
      <trkpt lat="48.48492" lon="1.52586">
        <ele>119.59835117235</ele>
        <time>2022-08-01T14:06:33.356Z</time>
      </trkpt>
      <trkpt lat="48.48492" lon="1.52586">
        <ele>119.58358602887</ele>
        <time>2022-08-01T14:06:35.371Z</time>
      </trkpt>
      <trkpt lat="48.48492" lon="1.52586">
        <ele>119.59835117235</ele>
        <time>2022-08-01T14:06:37.386Z</time>
      </trkpt>
      <trkpt lat="48.48431" lon="1.52467">
        <ele>119.35319399007</ele>
        <time>2022-08-01T14:06:39.417Z</time>
      </trkpt>
      <trkpt lat="48.48374" lon="1.52387">
        <ele>119.63804238496</ele>
        <time>2022-08-01T14:06:41.461Z</time>
      </trkpt>
      <trkpt lat="48.4837" lon="1.52348">
        <ele>119.80912155873</ele>
        <time>2022-08-01T14:06:43.509Z</time>
      </trkpt>
      <trkpt lat="48.48365" lon="1.52281">
        <ele>119.96931482675</ele>
        <time>2022-08-01T14:06:45.564Z</time>
      </trkpt>
      <trkpt lat="48.48369" lon="1.52137">
        <ele>120.01174846736</ele>
        <time>2022-08-01T14:06:47.634Z</time>
      </trkpt>
      <trkpt lat="48.48366" lon="1.52021">
        <ele>120.22357993441</ele>
        <time>2022-08-01T14:06:49.717Z</time>
      </trkpt>
      <trkpt lat="48.48364" lon="1.51915">
        <ele>120.56143332672</ele>
        <time>2022-08-01T14:06:51.811Z</time>
      </trkpt>
      <trkpt lat="48.4836" lon="1.51828">
        <ele>120.88115636393</ele>
        <time>2022-08-01T14:06:53.914Z</time>
      </trkpt>
      <trkpt lat="48.4836" lon="1.51784">
        <ele>121.17146894919</ele>
        <time>2022-08-01T14:06:56.022Z</time>
      </trkpt>
      <trkpt lat="48.48364" lon="1.51716">
        <ele>121.61220669246</ele>
        <time>2022-08-01T14:06:58.137Z</time>
      </trkpt>
      <trkpt lat="48.48408" lon="1.51322">
        <ele>122.20781970042</ele>
        <time>2022-08-01T14:07:00.295Z</time>
      </trkpt>
      <trkpt lat="48.4841" lon="1.51296">
        <ele>122.71291726033</ele>
        <time>2022-08-01T14:07:02.455Z</time>
      </trkpt>
      <trkpt lat="48.4841" lon="1.51289">
        <ele>123.24696632864</ele>
        <time>2022-08-01T14:07:04.616Z</time>
      </trkpt>
      <trkpt lat="48.4841" lon="1.51288">
        <ele>123.78893948501</ele>
        <time>2022-08-01T14:07:06.777Z</time>
      </trkpt>
      <trkpt lat="48.4841" lon="1.51288">
        <ele>124.35127715052</ele>
        <time>2022-08-01T14:07:08.938Z</time>
      </trkpt>
      <trkpt lat="48.48414" lon="1.51199">
        <ele>125.14830091832</ele>
        <time>2022-08-01T14:07:11.109Z</time>
      </trkpt>
      <trkpt lat="48.48411" lon="1.51169">
        <ele>125.62834388606</ele>
        <time>2022-08-01T14:07:13.283Z</time>
      </trkpt>
      <trkpt lat="48.48401" lon="1.51131">
        <ele>126.10838385045</ele>
        <time>2022-08-01T14:07:15.461Z</time>
      </trkpt>
      <trkpt lat="48.48336" lon="1.51014">
        <ele>126.75260200173</ele>
        <time>2022-08-01T14:07:17.656Z</time>
      </trkpt>
      <trkpt lat="48.48268" lon="1.50892">
        <ele>127.65893696671</ele>
        <time>2022-08-01T14:07:19.868Z</time>
      </trkpt>
      <trkpt lat="48.48257" lon="1.50874">
        <ele>128.08512433691</ele>
        <time>2022-08-01T14:07:22.082Z</time>
      </trkpt>
      <trkpt lat="48.48191" lon="1.50789">
        <ele>128.48107027275</ele>
        <time>2022-08-01T14:07:24.310Z</time>
      </trkpt>
      <trkpt lat="48.48137" lon="1.50731">
        <ele>128.74693738643</ele>
        <time>2022-08-01T14:07:26.549Z</time>
      </trkpt>
      <trkpt lat="48.48114" lon="1.50697">
        <ele>128.924592064</ele>
        <time>2022-08-01T14:07:28.793Z</time>
      </trkpt>
      <trkpt lat="48.48066" lon="1.50614">
        <ele>129.09891545289</ele>
        <time>2022-08-01T14:07:31.049Z</time>
      </trkpt>
      <trkpt lat="48.48028" lon="1.50564">
        <ele>129.16992777978</ele>
        <time>2022-08-01T14:07:33.313Z</time>
      </trkpt>
      <trkpt lat="48.47986" lon="1.50511">
        <ele>129.34091831597</ele>
        <time>2022-08-01T14:07:35.585Z</time>
      </trkpt>
      <trkpt lat="48.47927" lon="1.50443">
        <ele>129.18316670436</ele>
        <time>2022-08-01T14:07:37.869Z</time>
      </trkpt>
      <trkpt lat="48.47917" lon="1.50432">
        <ele>129.13189640575</ele>
        <time>2022-08-01T14:07:40.155Z</time>
      </trkpt>
      <trkpt lat="48.47886" lon="1.50405">
        <ele>129.14792551034</ele>
        <time>2022-08-01T14:07:42.447Z</time>
      </trkpt>
      <trkpt lat="48.47843" lon="1.50357">
        <ele>129.30890857513</ele>
        <time>2022-08-01T14:07:44.748Z</time>
      </trkpt>
      <trkpt lat="48.47823" lon="1.50333">
        <ele>129.33373760176</ele>
        <time>2022-08-01T14:07:47.053Z</time>
      </trkpt>
      <trkpt lat="48.4782" lon="1.50314">
        <ele>129.19952905729</ele>
        <time>2022-08-01T14:07:49.360Z</time>
      </trkpt>
      <trkpt lat="48.47816" lon="1.50302">
        <ele>129.05422140235</ele>
        <time>2022-08-01T14:07:51.668Z</time>
      </trkpt>
      <trkpt lat="48.47807" lon="1.50294">
        <ele>128.94308688247</ele>
        <time>2022-08-01T14:07:53.978Z</time>
      </trkpt>
      <trkpt lat="48.4778" lon="1.50276">
        <ele>128.81058112942</ele>
        <time>2022-08-01T14:07:56.293Z</time>
      </trkpt>
      <trkpt lat="48.47774" lon="1.50267">
        <ele>128.6021478577</ele>
        <time>2022-08-01T14:07:58.609Z</time>
      </trkpt>
      <trkpt lat="48.47734" lon="1.50209">
        <ele>128.29050168864</ele>
        <time>2022-08-01T14:08:00.934Z</time>
      </trkpt>
      <trkpt lat="48.47724" lon="1.50202">
        <ele>128.17837024766</ele>
        <time>2022-08-01T14:08:03.261Z</time>
      </trkpt>
      <trkpt lat="48.47705" lon="1.50191">
        <ele>128.11112169458</ele>
        <time>2022-08-01T14:08:05.591Z</time>
      </trkpt>
      <trkpt lat="48.47691" lon="1.50179">
        <ele>127.96385333604</ele>
        <time>2022-08-01T14:08:07.924Z</time>
      </trkpt>
      <trkpt lat="48.47675" lon="1.50162">
        <ele>127.83688487326</ele>
        <time>2022-08-01T14:08:10.260Z</time>
      </trkpt>
      <trkpt lat="48.4767" lon="1.50154">
        <ele>127.62207823991</ele>
        <time>2022-08-01T14:08:12.597Z</time>
      </trkpt>
      <trkpt lat="48.47665" lon="1.5013">
        <ele>127.28762117328</ele>
        <time>2022-08-01T14:08:14.936Z</time>
      </trkpt>
      <trkpt lat="48.47655" lon="1.50105">
        <ele>126.88100646</ele>
        <time>2022-08-01T14:08:17.279Z</time>
      </trkpt>
      <trkpt lat="48.47637" lon="1.50074">
        <ele>126.52306521332</ele>
        <time>2022-08-01T14:08:19.626Z</time>
      </trkpt>
      <trkpt lat="48.47601" lon="1.50019">
        <ele>126.09185821722</ele>
        <time>2022-08-01T14:08:21.981Z</time>
      </trkpt>
      <trkpt lat="48.47566" lon="1.49989">
        <ele>125.90058055165</ele>
        <time>2022-08-01T14:08:24.343Z</time>
      </trkpt>
      <trkpt lat="48.47542" lon="1.4996">
        <ele>125.66265738596</ele>
        <time>2022-08-01T14:08:26.710Z</time>
      </trkpt>
      <trkpt lat="48.475" lon="1.49901">
        <ele>125.71935679088</ele>
        <time>2022-08-01T14:08:29.086Z</time>
      </trkpt>
      <trkpt lat="48.47425" lon="1.49784">
        <ele>125.75147863503</ele>
        <time>2022-08-01T14:08:31.479Z</time>
      </trkpt>
      <trkpt lat="48.47391" lon="1.49741">
        <ele>125.64733389063</ele>
        <time>2022-08-01T14:08:33.879Z</time>
      </trkpt>
      <trkpt lat="48.47376" lon="1.49715">
        <ele>125.8214609352</ele>
        <time>2022-08-01T14:08:36.283Z</time>
      </trkpt>
      <trkpt lat="48.47371" lon="1.49699">
        <ele>126.04324777598</ele>
        <time>2022-08-01T14:08:38.689Z</time>
      </trkpt>
      <trkpt lat="48.47364" lon="1.49682">
        <ele>126.35108134587</ele>
        <time>2022-08-01T14:08:41.097Z</time>
      </trkpt>
      <trkpt lat="48.47322" lon="1.4962">
        <ele>126.72218414128</ele>
        <time>2022-08-01T14:08:43.514Z</time>
      </trkpt>
      <trkpt lat="48.47264" lon="1.49554">
        <ele>127.38410173902</ele>
        <time>2022-08-01T14:08:45.943Z</time>
      </trkpt>
      <trkpt lat="48.4723" lon="1.49521">
        <ele>127.98965819105</ele>
        <time>2022-08-01T14:08:48.378Z</time>
      </trkpt>
      <trkpt lat="48.47204" lon="1.49485">
        <ele>128.57206850218</ele>
        <time>2022-08-01T14:08:50.819Z</time>
      </trkpt>
      <trkpt lat="48.47178" lon="1.49436">
        <ele>128.91941316276</ele>
        <time>2022-08-01T14:08:53.267Z</time>
      </trkpt>
      <trkpt lat="48.47153" lon="1.49372">
        <ele>129.26673334031</ele>
        <time>2022-08-01T14:08:55.723Z</time>
      </trkpt>
      <trkpt lat="48.47137" lon="1.49317">
        <ele>129.83834838285</ele>
        <time>2022-08-01T14:08:58.185Z</time>
      </trkpt>
      <trkpt lat="48.47124" lon="1.49271">
        <ele>130.26909868351</ele>
        <time>2022-08-01T14:09:00.652Z</time>
      </trkpt>
      <trkpt lat="48.47108" lon="1.49238">
        <ele>130.77095957022</ele>
        <time>2022-08-01T14:09:03.124Z</time>
      </trkpt>
      <trkpt lat="48.47097" lon="1.49206">
        <ele>131.17632618621</ele>
        <time>2022-08-01T14:09:05.600Z</time>
      </trkpt>
      <trkpt lat="48.4707" lon="1.49158">
        <ele>131.64109460914</ele>
        <time>2022-08-01T14:09:08.082Z</time>
      </trkpt>
      <trkpt lat="48.47067" lon="1.49149">
        <ele>131.710479302</ele>
        <time>2022-08-01T14:09:10.565Z</time>
      </trkpt>
      <trkpt lat="48.47064" lon="1.49115">
        <ele>131.56031626811</ele>
        <time>2022-08-01T14:09:13.052Z</time>
      </trkpt>
      <trkpt lat="48.47059" lon="1.49077">
        <ele>131.15341879972</ele>
        <time>2022-08-01T14:09:15.543Z</time>
      </trkpt>
      <trkpt lat="48.47058" lon="1.4907">
        <ele>130.78256239998</ele>
        <time>2022-08-01T14:09:18.035Z</time>
      </trkpt>
      <trkpt lat="48.47058" lon="1.49067">
        <ele>130.3347147474</ele>
        <time>2022-08-01T14:09:20.527Z</time>
      </trkpt>
      <trkpt lat="48.47051" lon="1.4901">
        <ele>129.48569100626</ele>
        <time>2022-08-01T14:09:23.025Z</time>
      </trkpt>
      <trkpt lat="48.47048" lon="1.48997">
        <ele>128.8210336187</ele>
        <time>2022-08-01T14:09:25.525Z</time>
      </trkpt>
      <trkpt lat="48.47044" lon="1.48992">
        <ele>128.19595270785</ele>
        <time>2022-08-01T14:09:28.026Z</time>
      </trkpt>
      <trkpt lat="48.47039" lon="1.48994">
        <ele>127.61824764686</ele>
        <time>2022-08-01T14:09:30.527Z</time>
      </trkpt>
      <trkpt lat="48.47026" lon="1.49">
        <ele>127.10935611762</ele>
        <time>2022-08-01T14:09:33.031Z</time>
      </trkpt>
      <trkpt lat="48.4702" lon="1.48988">
        <ele>126.37666310844</ele>
        <time>2022-08-01T14:09:35.536Z</time>
      </trkpt>
      <trkpt lat="48.47023" lon="1.48978">
        <ele>125.68062616338</ele>
        <time>2022-08-01T14:09:38.042Z</time>
      </trkpt>
      <trkpt lat="48.4702" lon="1.48924">
        <ele>124.85518970818</ele>
        <time>2022-08-01T14:09:40.554Z</time>
      </trkpt>
      <trkpt lat="48.47019" lon="1.48854">
        <ele>124.23784680913</ele>
        <time>2022-08-01T14:09:43.074Z</time>
      </trkpt>
      <trkpt lat="48.47017" lon="1.48828">
        <ele>123.79377281103</ele>
        <time>2022-08-01T14:09:45.596Z</time>
      </trkpt>
      <trkpt lat="48.46999" lon="1.48763">
        <ele>123.50994077186</ele>
        <time>2022-08-01T14:09:48.126Z</time>
      </trkpt>
      <trkpt lat="48.46994" lon="1.48753">
        <ele>123.2579418185</ele>
        <time>2022-08-01T14:09:50.657Z</time>
      </trkpt>
      <trkpt lat="48.46958" lon="1.48684">
        <ele>123.03887204171</ele>
        <time>2022-08-01T14:09:53.198Z</time>
      </trkpt>
      <trkpt lat="48.46955" lon="1.48678">
        <ele>122.85095703646</ele>
        <time>2022-08-01T14:09:55.739Z</time>
      </trkpt>
      <trkpt lat="48.46955" lon="1.48678">
        <ele>122.7148253161</ele>
        <time>2022-08-01T14:09:58.280Z</time>
      </trkpt>
      <trkpt lat="48.46954" lon="1.48676">
        <ele>122.62919156516</ele>
        <time>2022-08-01T14:10:00.822Z</time>
      </trkpt>
      <trkpt lat="48.46951" lon="1.4868">
        <ele>122.60272291217</ele>
        <time>2022-08-01T14:10:03.364Z</time>
      </trkpt>
      <trkpt lat="48.46954" lon="1.48676">
        <ele>122.62919156516</ele>
        <time>2022-08-01T14:10:05.907Z</time>
      </trkpt>
      <trkpt lat="48.46934" lon="1.48647">
        <ele>122.60527163651</ele>
        <time>2022-08-01T14:10:08.454Z</time>
      </trkpt>
      <trkpt lat="48.46924" lon="1.48627">
        <ele>122.6419026661</ele>
        <time>2022-08-01T14:10:11.004Z</time>
      </trkpt>
      <trkpt lat="48.46906" lon="1.48583">
        <ele>122.69812463046</ele>
        <time>2022-08-01T14:10:13.559Z</time>
      </trkpt>
      <trkpt lat="48.4687" lon="1.48509">
        <ele>122.69066899527</ele>
        <time>2022-08-01T14:10:16.124Z</time>
      </trkpt>
      <trkpt lat="48.46846" lon="1.48466">
        <ele>122.76434095728</ele>
        <time>2022-08-01T14:10:18.695Z</time>
      </trkpt>
      <trkpt lat="48.46801" lon="1.48404">
        <ele>122.88769717656</ele>
        <time>2022-08-01T14:10:21.276Z</time>
      </trkpt>
      <trkpt lat="48.46805" lon="1.48346">
        <ele>123.12961277397</ele>
        <time>2022-08-01T14:10:23.863Z</time>
      </trkpt>
      <trkpt lat="48.46768" lon="1.4834">
        <ele>123.16902894281</ele>
        <time>2022-08-01T14:10:26.456Z</time>
      </trkpt>
      <trkpt lat="48.46741" lon="1.48334">
        <ele>123.27111794774</ele>
        <time>2022-08-01T14:10:29.054Z</time>
      </trkpt>
      <trkpt lat="48.46724" lon="1.48334">
        <ele>123.41624110644</ele>
        <time>2022-08-01T14:10:31.654Z</time>
      </trkpt>
      <trkpt lat="48.46699" lon="1.48332">
        <ele>123.56879213264</ele>
        <time>2022-08-01T14:10:34.258Z</time>
      </trkpt>
      <trkpt lat="48.46658" lon="1.48318">
        <ele>123.68355637786</ele>
        <time>2022-08-01T14:10:36.869Z</time>
      </trkpt>
      <trkpt lat="48.46646" lon="1.48314">
        <ele>123.83599970722</ele>
        <time>2022-08-01T14:10:39.482Z</time>
      </trkpt>
      <trkpt lat="48.46605" lon="1.48311">
        <ele>124.14470067154</ele>
        <time>2022-08-01T14:10:42.102Z</time>
      </trkpt>
      <trkpt lat="48.46539" lon="1.48309">
        <ele>124.38450504029</ele>
        <time>2022-08-01T14:10:44.732Z</time>
      </trkpt>
      <trkpt lat="48.46532" lon="1.48307">
        <ele>124.50100965419</ele>
        <time>2022-08-01T14:10:47.363Z</time>
      </trkpt>
      <trkpt lat="48.46527" lon="1.48305">
        <ele>124.60035710305</ele>
        <time>2022-08-01T14:10:49.995Z</time>
      </trkpt>
      <trkpt lat="48.46517" lon="1.48302">
        <ele>124.70255610184</ele>
        <time>2022-08-01T14:10:52.629Z</time>
      </trkpt>
      <trkpt lat="48.4648" lon="1.48283">
        <ele>124.69934805735</ele>
        <time>2022-08-01T14:10:55.269Z</time>
      </trkpt>
      <trkpt lat="48.46457" lon="1.48281">
        <ele>124.69619455952</ele>
        <time>2022-08-01T14:10:57.913Z</time>
      </trkpt>
      <trkpt lat="48.46429" lon="1.4828">
        <ele>124.69519105947</ele>
        <time>2022-08-01T14:11:00.561Z</time>
      </trkpt>
      <trkpt lat="48.46412" lon="1.48289">
        <ele>124.71823327904</ele>
        <time>2022-08-01T14:11:03.212Z</time>
      </trkpt>
      <trkpt lat="48.46389" lon="1.48303">
        <ele>124.8399342973</ele>
        <time>2022-08-01T14:11:05.867Z</time>
      </trkpt>
      <trkpt lat="48.46359" lon="1.48327">
        <ele>124.70114239761</ele>
        <time>2022-08-01T14:11:08.527Z</time>
      </trkpt>
      <trkpt lat="48.46308" lon="1.48392">
        <ele>124.43465364443</ele>
        <time>2022-08-01T14:11:11.198Z</time>
      </trkpt>
      <trkpt lat="48.4627" lon="1.48441">
        <ele>124.48957257161</ele>
        <time>2022-08-01T14:11:13.877Z</time>
      </trkpt>
      <trkpt lat="48.46202" lon="1.48529">
        <ele>124.12759721928</ele>
        <time>2022-08-01T14:11:16.571Z</time>
      </trkpt>
      <trkpt lat="48.4619" lon="1.48522">
        <ele>123.89586688776</ele>
        <time>2022-08-01T14:11:19.267Z</time>
      </trkpt>
      <trkpt lat="48.46182" lon="1.48538">
        <ele>123.80169258966</ele>
        <time>2022-08-01T14:11:21.965Z</time>
      </trkpt>
      <trkpt lat="48.46181" lon="1.4854">
        <ele>123.68746842183</ele>
        <time>2022-08-01T14:11:24.663Z</time>
      </trkpt>
      <trkpt lat="48.46179" lon="1.48543">
        <ele>123.59631006596</ele>
        <time>2022-08-01T14:11:27.361Z</time>
      </trkpt>
      <trkpt lat="48.46171" lon="1.48554">
        <ele>123.56042812375</ele>
        <time>2022-08-01T14:11:30.061Z</time>
      </trkpt>
      <trkpt lat="48.46154" lon="1.48576">
        <ele>123.57757767609</ele>
        <time>2022-08-01T14:11:32.765Z</time>
      </trkpt>
      <trkpt lat="48.46108" lon="1.48632">
        <ele>123.38144136643</ele>
        <time>2022-08-01T14:11:35.478Z</time>
      </trkpt>
      <trkpt lat="48.46105" lon="1.48635">
        <ele>123.40993419494</ele>
        <time>2022-08-01T14:11:38.192Z</time>
      </trkpt>
      <trkpt lat="48.46104" lon="1.48636">
        <ele>123.4837536733</ele>
        <time>2022-08-01T14:11:40.906Z</time>
      </trkpt>
      <trkpt lat="48.46096" lon="1.48647">
        <ele>123.58753411936</ele>
        <time>2022-08-01T14:11:43.622Z</time>
      </trkpt>
      <trkpt lat="48.46032" lon="1.48728">
        <ele>123.88997960922</ele>
        <time>2022-08-01T14:11:46.351Z</time>
      </trkpt>
      <trkpt lat="48.46031" lon="1.48729">
        <ele>124.08781670087</ele>
        <time>2022-08-01T14:11:49.080Z</time>
      </trkpt>
      <trkpt lat="48.46027" lon="1.48734">
        <ele>124.30070734601</ele>
        <time>2022-08-01T14:11:51.810Z</time>
      </trkpt>
      <trkpt lat="48.46027" lon="1.48734">
        <ele>124.58086246772</ele>
        <time>2022-08-01T14:11:54.540Z</time>
      </trkpt>
      <trkpt lat="48.46002" lon="1.48758">
        <ele>124.90848844767</ele>
        <time>2022-08-01T14:11:57.275Z</time>
      </trkpt>
      <trkpt lat="48.4598" lon="1.48769">
        <ele>125.33676882999</ele>
        <time>2022-08-01T14:12:00.014Z</time>
      </trkpt>
      <trkpt lat="48.4596" lon="1.48769">
        <ele>125.80626935277</ele>
        <time>2022-08-01T14:12:02.756Z</time>
      </trkpt>
      <trkpt lat="48.45937" lon="1.48761">
        <ele>126.27859941597</ele>
        <time>2022-08-01T14:12:05.502Z</time>
      </trkpt>
      <trkpt lat="48.45927" lon="1.48754">
        <ele>126.55604144815</ele>
        <time>2022-08-01T14:12:08.249Z</time>
      </trkpt>
      <trkpt lat="48.45923" lon="1.48751">
        <ele>126.82848978595</ele>
        <time>2022-08-01T14:12:10.997Z</time>
      </trkpt>
      <trkpt lat="48.45917" lon="1.48747">
        <ele>127.06099178032</ele>
        <time>2022-08-01T14:12:13.746Z</time>
      </trkpt>
      <trkpt lat="48.45909" lon="1.48737">
        <ele>127.21542474666</ele>
        <time>2022-08-01T14:12:16.497Z</time>
      </trkpt>
      <trkpt lat="48.45897" lon="1.4871">
        <ele>127.2412429189</ele>
        <time>2022-08-01T14:12:19.251Z</time>
      </trkpt>
      <trkpt lat="48.45874" lon="1.48747">
        <ele>127.78217783453</ele>
        <time>2022-08-01T14:12:22.011Z</time>
      </trkpt>
      <trkpt lat="48.45868" lon="1.48762">
        <ele>127.99174754955</ele>
        <time>2022-08-01T14:12:24.773Z</time>
      </trkpt>
      <trkpt lat="48.45855" lon="1.48775">
        <ele>128.01653917287</ele>
        <time>2022-08-01T14:12:27.537Z</time>
      </trkpt>
      <trkpt lat="48.45851" lon="1.48779">
        <ele>128.05895493296</ele>
        <time>2022-08-01T14:12:30.302Z</time>
      </trkpt>
      <trkpt lat="48.45851" lon="1.48778">
        <ele>128.09005927245</ele>
        <time>2022-08-01T14:12:33.067Z</time>
      </trkpt>
      <trkpt lat="48.45926" lon="1.4899">
        <ele>127.88589144338</ele>
        <time>2022-08-01T14:12:35.858Z</time>
      </trkpt>
      <trkpt lat="48.45929" lon="1.48998">
        <ele>127.90980233177</ele>
        <time>2022-08-01T14:12:38.649Z</time>
      </trkpt>
      <trkpt lat="48.45929" lon="1.48998">
        <ele>127.89569715536</ele>
        <time>2022-08-01T14:12:41.440Z</time>
      </trkpt>
      <trkpt lat="48.45932" lon="1.49006">
        <ele>127.91083499046</ele>
        <time>2022-08-01T14:12:44.232Z</time>
      </trkpt>
      <trkpt lat="48.45934" lon="1.49021">
        <ele>127.93762870147</ele>
        <time>2022-08-01T14:12:47.026Z</time>
      </trkpt>
      <trkpt lat="48.45929" lon="1.49033">
        <ele>127.96178504722</ele>
        <time>2022-08-01T14:12:49.822Z</time>
      </trkpt>
      <trkpt lat="48.45863" lon="1.49102">
        <ele>128.15868354735</ele>
        <time>2022-08-01T14:12:52.630Z</time>
      </trkpt>
      <trkpt lat="48.45743" lon="1.49149">
        <ele>127.79391062041</ele>
        <time>2022-08-01T14:12:55.458Z</time>
      </trkpt>
      <trkpt lat="48.45604" lon="1.4921">
        <ele>127.73794314428</ele>
        <time>2022-08-01T14:12:58.310Z</time>
      </trkpt>
      <trkpt lat="48.45602" lon="1.49211">
        <ele>127.70911048501</ele>
        <time>2022-08-01T14:13:01.162Z</time>
      </trkpt>
      <trkpt lat="48.45596" lon="1.49214">
        <ele>127.68873862017</ele>
        <time>2022-08-01T14:13:04.015Z</time>
      </trkpt>
      <trkpt lat="48.45596" lon="1.49214">
        <ele>127.66796902193</ele>
        <time>2022-08-01T14:13:06.868Z</time>
      </trkpt>
      <trkpt lat="48.45578" lon="1.49224">
        <ele>127.66159680466</ele>
        <time>2022-08-01T14:13:09.724Z</time>
      </trkpt>
      <trkpt lat="48.45555" lon="1.49231">
        <ele>127.67460821614</ele>
        <time>2022-08-01T14:13:12.584Z</time>
      </trkpt>
      <trkpt lat="48.45507" lon="1.49237">
        <ele>127.73576903684</ele>
        <time>2022-08-01T14:13:15.451Z</time>
      </trkpt>
      <trkpt lat="48.45447" lon="1.49252">
        <ele>127.67244502841</ele>
        <time>2022-08-01T14:13:18.328Z</time>
      </trkpt>
      <trkpt lat="48.45423" lon="1.49248">
        <ele>127.64207231047</ele>
        <time>2022-08-01T14:13:21.209Z</time>
      </trkpt>
      <trkpt lat="48.45416" lon="1.4925">
        <ele>127.64717174647</ele>
        <time>2022-08-01T14:13:24.091Z</time>
      </trkpt>
      <trkpt lat="48.45412" lon="1.49255">
        <ele>127.66806492744</ele>
        <time>2022-08-01T14:13:26.974Z</time>
      </trkpt>
      <trkpt lat="48.45382" lon="1.49337">
        <ele>127.7985655743</ele>
        <time>2022-08-01T14:13:29.867Z</time>
      </trkpt>
      <trkpt lat="48.45352" lon="1.49327">
        <ele>127.75621066356</ele>
        <time>2022-08-01T14:13:32.765Z</time>
      </trkpt>
      <trkpt lat="48.45332" lon="1.49319">
        <ele>127.70570254986</ele>
        <time>2022-08-01T14:13:35.666Z</time>
      </trkpt>
      <trkpt lat="48.45324" lon="1.49313">
        <ele>127.61206754791</ele>
        <time>2022-08-01T14:13:38.569Z</time>
      </trkpt>
      <trkpt lat="48.4525" lon="1.49257">
        <ele>127.42790648282</ele>
        <time>2022-08-01T14:13:41.485Z</time>
      </trkpt>
      <trkpt lat="48.45248" lon="1.49256">
        <ele>127.33824416658</ele>
        <time>2022-08-01T14:13:44.401Z</time>
      </trkpt>
      <trkpt lat="48.45238" lon="1.49249">
        <ele>127.24808803312</ele>
        <time>2022-08-01T14:13:47.319Z</time>
      </trkpt>
      <trkpt lat="48.45188" lon="1.49223">
        <ele>127.17188231861</ele>
        <time>2022-08-01T14:13:50.245Z</time>
      </trkpt>
      <trkpt lat="48.45184" lon="1.49194">
        <ele>126.9538952387</ele>
        <time>2022-08-01T14:13:53.175Z</time>
      </trkpt>
      <trkpt lat="48.45183" lon="1.49158">
        <ele>126.67293510688</ele>
        <time>2022-08-01T14:13:56.108Z</time>
      </trkpt>
      <trkpt lat="48.45106" lon="1.49164">
        <ele>126.74133441867</ele>
        <time>2022-08-01T14:13:59.054Z</time>
      </trkpt>
      <trkpt lat="48.45106" lon="1.49164">
        <ele>126.68476085658</ele>
        <time>2022-08-01T14:14:02.000Z</time>
      </trkpt>
      <trkpt lat="48.45091" lon="1.49166">
        <ele>126.69072865225</ele>
        <time>2022-08-01T14:14:04.948Z</time>
      </trkpt>
      <trkpt lat="48.45083" lon="1.49166">
        <ele>126.69236457969</ele>
        <time>2022-08-01T14:14:07.897Z</time>
      </trkpt>
      <trkpt lat="48.45074" lon="1.49157">
        <ele>126.69247701033</ele>
        <time>2022-08-01T14:14:10.848Z</time>
      </trkpt>
      <trkpt lat="48.45062" lon="1.49155">
        <ele>126.70406467008</ele>
        <time>2022-08-01T14:14:13.801Z</time>
      </trkpt>
      <trkpt lat="48.45045" lon="1.49155">
        <ele>126.73045344946</ele>
        <time>2022-08-01T14:14:16.757Z</time>
      </trkpt>
      <trkpt lat="48.45032" lon="1.49159">
        <ele>126.77090245305</ele>
        <time>2022-08-01T14:14:19.715Z</time>
      </trkpt>
      <trkpt lat="48.45024" lon="1.49162">
        <ele>126.82462910514</ele>
        <time>2022-08-01T14:14:22.674Z</time>
      </trkpt>
      <trkpt lat="48.45018" lon="1.49165">
        <ele>126.89078285953</ele>
        <time>2022-08-01T14:14:25.634Z</time>
      </trkpt>
      <trkpt lat="48.45018" lon="1.49165">
        <ele>126.96840561079</ele>
        <time>2022-08-01T14:14:28.594Z</time>
      </trkpt>
      <trkpt lat="48.45015" lon="1.49166">
        <ele>127.05638063756</ele>
        <time>2022-08-01T14:14:31.555Z</time>
      </trkpt>
      <trkpt lat="48.45015" lon="1.49166">
        <ele>127.15337230135</ele>
        <time>2022-08-01T14:14:34.516Z</time>
      </trkpt>
      <trkpt lat="48.44996" lon="1.49175">
        <ele>127.25775912239</ele>
        <time>2022-08-01T14:14:37.480Z</time>
      </trkpt>
      <trkpt lat="48.44925" lon="1.4922">
        <ele>127.36756325894</ele>
        <time>2022-08-01T14:14:40.456Z</time>
      </trkpt>
      <trkpt lat="48.44851" lon="1.49258">
        <ele>127.64133021915</ele>
        <time>2022-08-01T14:14:43.445Z</time>
      </trkpt>
      <trkpt lat="48.44768" lon="1.4931">
        <ele>127.60051094137</ele>
        <time>2022-08-01T14:14:46.448Z</time>
      </trkpt>
      <trkpt lat="48.44744" lon="1.49329">
        <ele>127.77400282989</ele>
        <time>2022-08-01T14:14:49.456Z</time>
      </trkpt>
      <trkpt lat="48.44743" lon="1.4933">
        <ele>127.87455385201</ele>
        <time>2022-08-01T14:14:52.464Z</time>
      </trkpt>
      <trkpt lat="48.44741" lon="1.49337">
        <ele>127.96849130091</ele>
        <time>2022-08-01T14:14:55.473Z</time>
      </trkpt>
      <trkpt lat="48.44741" lon="1.49337">
        <ele>128.05479343745</ele>
        <time>2022-08-01T14:14:58.482Z</time>
      </trkpt>
      <trkpt lat="48.44736" lon="1.49352">
        <ele>128.13265275178</ele>
        <time>2022-08-01T14:15:01.492Z</time>
      </trkpt>
      <trkpt lat="48.44695" lon="1.49387">
        <ele>128.27759079016</ele>
        <time>2022-08-01T14:15:04.510Z</time>
      </trkpt>
      <trkpt lat="48.44696" lon="1.49375">
        <ele>128.29914738794</ele>
        <time>2022-08-01T14:15:07.529Z</time>
      </trkpt>
      <trkpt lat="48.44696" lon="1.49362">
        <ele>128.30507116102</ele>
        <time>2022-08-01T14:15:10.550Z</time>
      </trkpt>
      <trkpt lat="48.44695" lon="1.49353">
        <ele>128.3405848909</ele>
        <time>2022-08-01T14:15:13.572Z</time>
      </trkpt>
      <trkpt lat="48.44695" lon="1.49353">
        <ele>128.37104950676</ele>
        <time>2022-08-01T14:15:16.594Z</time>
      </trkpt>
      <trkpt lat="48.44695" lon="1.49353">
        <ele>128.39474648015</ele>
        <time>2022-08-01T14:15:19.616Z</time>
      </trkpt>
      <trkpt lat="48.44695" lon="1.49339">
        <ele>128.41204931593</ele>
        <time>2022-08-01T14:15:22.639Z</time>
      </trkpt>
      <trkpt lat="48.44695" lon="1.49339">
        <ele>128.42303548505</ele>
        <time>2022-08-01T14:15:25.662Z</time>
      </trkpt>
      <trkpt lat="48.44694" lon="1.49296">
        <ele>128.45444748927</ele>
        <time>2022-08-01T14:15:28.690Z</time>
      </trkpt>
      <trkpt lat="48.44694" lon="1.49296">
        <ele>128.45035091643</ele>
        <time>2022-08-01T14:15:31.718Z</time>
      </trkpt>
      <trkpt lat="48.44694" lon="1.49218">
        <ele>128.40374554445</ele>
        <time>2022-08-01T14:15:34.754Z</time>
      </trkpt>
      <trkpt lat="48.44694" lon="1.49218">
        <ele>128.38480223824</ele>
        <time>2022-08-01T14:15:37.790Z</time>
      </trkpt>
      <trkpt lat="48.447" lon="1.49214">
        <ele>128.3770323795</ele>
        <time>2022-08-01T14:15:40.827Z</time>
      </trkpt>
      <trkpt lat="48.447" lon="1.49216">
        <ele>128.34765586972</ele>
        <time>2022-08-01T14:15:43.864Z</time>
      </trkpt>
      <trkpt lat="48.447" lon="1.49214">
        <ele>128.3770323795</ele>
        <time>2022-08-01T14:15:46.901Z</time>
      </trkpt>
      <trkpt lat="48.4475" lon="1.49178">
        <ele>128.28802847663</ele>
        <time>2022-08-01T14:15:49.947Z</time>
      </trkpt>
      <trkpt lat="48.44805" lon="1.49146">
        <ele>128.14290778172</ele>
        <time>2022-08-01T14:15:53.003Z</time>
      </trkpt>
      <trkpt lat="48.44809" lon="1.49143">
        <ele>128.03449785884</ele>
        <time>2022-08-01T14:15:56.060Z</time>
      </trkpt>
      <trkpt lat="48.44816" lon="1.49138">
        <ele>127.89738138254</ele>
        <time>2022-08-01T14:15:59.118Z</time>
      </trkpt>
      <trkpt lat="48.44816" lon="1.49138">
        <ele>127.78624489796</ele>
        <time>2022-08-01T14:16:02.176Z</time>
      </trkpt>
      <trkpt lat="48.44816" lon="1.49138">
        <ele>127.89738138254</ele>
        <time>2022-08-01T14:16:05.234Z</time>
      </trkpt>
      <trkpt lat="48.44871" lon="1.49098">
        <ele>127.64474993445</ele>
        <time>2022-08-01T14:16:08.302Z</time>
      </trkpt>
      <trkpt lat="48.44905" lon="1.49078">
        <ele>127.43283033799</ele>
        <time>2022-08-01T14:16:11.375Z</time>
      </trkpt>
      <trkpt lat="48.44923" lon="1.49077">
        <ele>127.29087994047</ele>
        <time>2022-08-01T14:16:14.451Z</time>
      </trkpt>
      <trkpt lat="48.44929" lon="1.4907">
        <ele>127.14837088096</ele>
        <time>2022-08-01T14:16:17.529Z</time>
      </trkpt>
      <trkpt lat="48.44951" lon="1.49049">
        <ele>127.02745556964</ele>
        <time>2022-08-01T14:16:20.611Z</time>
      </trkpt>
      <trkpt lat="48.4496" lon="1.49046">
        <ele>126.90687201557</ele>
        <time>2022-08-01T14:16:23.694Z</time>
      </trkpt>
      <trkpt lat="48.44996" lon="1.49043">
        <ele>126.69175708072</ele>
        <time>2022-08-01T14:16:26.783Z</time>
      </trkpt>
      <trkpt lat="48.45061" lon="1.49041">
        <ele>126.60665927931</ele>
        <time>2022-08-01T14:16:29.882Z</time>
      </trkpt>
      <trkpt lat="48.45104" lon="1.49042">
        <ele>126.46388462324</ele>
        <time>2022-08-01T14:16:32.988Z</time>
      </trkpt>
      <trkpt lat="48.45155" lon="1.4905">
        <ele>126.3051648169</ele>
        <time>2022-08-01T14:16:36.103Z</time>
      </trkpt>
      <trkpt lat="48.45155" lon="1.49044">
        <ele>126.37962026939</ele>
        <time>2022-08-01T14:16:39.218Z</time>
      </trkpt>
      <trkpt lat="48.45167" lon="1.48988">
        <ele>126.54657485902</ele>
        <time>2022-08-01T14:16:42.339Z</time>
      </trkpt>
      <trkpt lat="48.45171" lon="1.48929">
        <ele>127.0754533806</ele>
        <time>2022-08-01T14:16:45.467Z</time>
      </trkpt>
      <trkpt lat="48.45163" lon="1.48937">
        <ele>127.25213157827</ele>
        <time>2022-08-01T14:16:48.596Z</time>
      </trkpt>
      <trkpt lat="48.45082" lon="1.48968">
        <ele>127.66562843154</ele>
        <time>2022-08-01T14:16:51.739Z</time>
      </trkpt>
      <trkpt lat="48.45062" lon="1.48967">
        <ele>128.08311053192</ele>
        <time>2022-08-01T14:16:54.885Z</time>
      </trkpt>
      <trkpt lat="48.45051" lon="1.48963">
        <ele>128.37842935138</ele>
        <time>2022-08-01T14:16:58.033Z</time>
      </trkpt>
      <trkpt lat="48.45032" lon="1.48959">
        <ele>128.51852323203</ele>
        <time>2022-08-01T14:17:01.184Z</time>
      </trkpt>
      <trkpt lat="48.45016" lon="1.48955">
        <ele>128.66576478675</ele>
        <time>2022-08-01T14:17:04.337Z</time>
      </trkpt>
      <trkpt lat="48.44992" lon="1.48969">
        <ele>128.59245762031</ele>
        <time>2022-08-01T14:17:07.494Z</time>
      </trkpt>
      <trkpt lat="48.44981" lon="1.48975">
        <ele>128.79116702035</ele>
        <time>2022-08-01T14:17:10.653Z</time>
      </trkpt>
      <trkpt lat="48.44958" lon="1.48967">
        <ele>129.21553183674</ele>
        <time>2022-08-01T14:17:13.816Z</time>
      </trkpt>
      <trkpt lat="48.44942" lon="1.48974">
        <ele>129.40701054084</ele>
        <time>2022-08-01T14:17:16.982Z</time>
      </trkpt>
      <trkpt lat="48.44929" lon="1.48989">
        <ele>129.41057134439</ele>
        <time>2022-08-01T14:17:20.151Z</time>
      </trkpt>
      <trkpt lat="48.44923" lon="1.49">
        <ele>129.59178080819</ele>
        <time>2022-08-01T14:17:23.321Z</time>
      </trkpt>
      <trkpt lat="48.44918" lon="1.49009">
        <ele>129.88256908697</ele>
        <time>2022-08-01T14:17:26.492Z</time>
      </trkpt>
      <trkpt lat="48.44918" lon="1.4901">
        <ele>130.32444970082</ele>
        <time>2022-08-01T14:17:29.663Z</time>
      </trkpt>
      <trkpt lat="48.44872" lon="1.49037">
        <ele>130.8808035382</ele>
        <time>2022-08-01T14:17:32.842Z</time>
      </trkpt>
      <trkpt lat="48.44864" lon="1.49042">
        <ele>131.62726067994</ele>
        <time>2022-08-01T14:17:36.023Z</time>
      </trkpt>
      <trkpt lat="48.44784" lon="1.49043">
        <ele>133.0032165379</ele>
        <time>2022-08-01T14:17:39.216Z</time>
      </trkpt>
      <trkpt lat="48.44776" lon="1.49043">
        <ele>133.94782110559</ele>
        <time>2022-08-01T14:17:42.411Z</time>
      </trkpt>
      <trkpt lat="48.44702" lon="1.49082">
        <ele>134.83884942471</ele>
        <time>2022-08-01T14:17:45.618Z</time>
      </trkpt>
      <trkpt lat="48.44694" lon="1.49086">
        <ele>135.95301409027</ele>
        <time>2022-08-01T14:17:48.827Z</time>
      </trkpt>
      <trkpt lat="48.44694" lon="1.49057">
        <ele>137.63511764454</ele>
        <time>2022-08-01T14:17:52.039Z</time>
      </trkpt>
      <trkpt lat="48.44694" lon="1.49044">
        <ele>139.14529189027</ele>
        <time>2022-08-01T14:17:55.252Z</time>
      </trkpt>
      <trkpt lat="48.44695" lon="1.49044">
        <ele>140.57693215051</ele>
        <time>2022-08-01T14:17:58.465Z</time>
      </trkpt>
      <trkpt lat="48.44698" lon="1.49031">
        <ele>142.28697234146</ele>
        <time>2022-08-01T14:18:01.680Z</time>
      </trkpt>
      <trkpt lat="48.44723" lon="1.48986">
        <ele>144.21123026339</ele>
        <time>2022-08-01T14:18:04.901Z</time>
      </trkpt>
      <trkpt lat="48.44752" lon="1.48954">
        <ele>145.89790765099</ele>
        <time>2022-08-01T14:18:08.128Z</time>
      </trkpt>
      <trkpt lat="48.44753" lon="1.48953">
        <ele>147.42335945112</ele>
        <time>2022-08-01T14:18:11.355Z</time>
      </trkpt>
      <trkpt lat="48.44759" lon="1.48949">
        <ele>149.02476751163</ele>
        <time>2022-08-01T14:18:14.583Z</time>
      </trkpt>
      <trkpt lat="48.44798" lon="1.48924">
        <ele>150.8956201909</ele>
        <time>2022-08-01T14:18:17.818Z</time>
      </trkpt>
      <trkpt lat="48.44807" lon="1.48911">
        <ele>152.45060173109</ele>
        <time>2022-08-01T14:18:21.055Z</time>
      </trkpt>
      <trkpt lat="48.44814" lon="1.48896">
        <ele>153.80665622999</ele>
        <time>2022-08-01T14:18:24.294Z</time>
      </trkpt>
      <trkpt lat="48.44811" lon="1.48889">
        <ele>155.12456984661</ele>
        <time>2022-08-01T14:18:27.534Z</time>
      </trkpt>
      <trkpt lat="48.44807" lon="1.48883">
        <ele>156.32100053009</ele>
        <time>2022-08-01T14:18:30.775Z</time>
      </trkpt>
      <trkpt lat="48.44795" lon="1.48872">
        <ele>157.54958649225</ele>
        <time>2022-08-01T14:18:34.018Z</time>
      </trkpt>
      <trkpt lat="48.44785" lon="1.48865">
        <ele>158.68389380395</ele>
        <time>2022-08-01T14:18:37.263Z</time>
      </trkpt>
      <trkpt lat="48.44775" lon="1.48862">
        <ele>159.76024939148</ele>
        <time>2022-08-01T14:18:40.509Z</time>
      </trkpt>
      <trkpt lat="48.44763" lon="1.48857">
        <ele>160.90307560924</ele>
        <time>2022-08-01T14:18:43.757Z</time>
      </trkpt>
      <trkpt lat="48.44758" lon="1.48852">
        <ele>161.94997478509</ele>
        <time>2022-08-01T14:18:47.006Z</time>
      </trkpt>
      <trkpt lat="48.44741" lon="1.48825">
        <ele>163.18093509306</ele>
        <time>2022-08-01T14:18:50.259Z</time>
      </trkpt>
    </trkseg>
  </trk>
</gpx>